Terminal Aerodrome Forecast
Issued by NWS

Current Version | Previous Version | Graphics & Text | Print | Product List | Glossary On
Versions: 1 2 3 4 5 6 7 8 9 10 11 12 13 14 15 16 17 18 19 20
686
FTUS41 KPBZ 080912 AAA
TAFHLG
TAF AMD
KHLG 080912Z 0809/0906 25008KT P6SM OVC025
     FM081000 24006KT P6SM SCT250
     FM081500 23010G18KT P6SM SCT250=

USA.gov is the U.S. government's official web portal to all federal, state and local government web resources and services.